Time;durP1;ratioP1;P1;durP2;ratioP2;P2;SDS_P1;SDS_P2;PMS_P1;PMS_P2;Temp;Humidity;BMP_temperature;BMP_pressure;BME280_temperature;BME280_humidity;BME280_pressure;Samples;Min_cycle;Max_cycle;Signal;HPM_P1;HPM_P2
2023/03/06 00:01:08;;;;;;;;;44.33;35.00;;;;;7.92;55.61;100518.97;5059627;28;45459;-75
2023/03/06 00:03:34;;;;;;;;;40.33;36.33;;;;;8.76;55.78;100663.50;5057855;28;48782;-75
2023/03/06 00:06:00;;;;;;;;;42.67;34.00;;;;;8.70;56.18;100664.03;5059123;28;45372;-74
2023/03/06 00:08:27;;;;;;;;;46.00;35.33;;;;;8.60;55.42;100662.31;5059208;28;45316;-75
2023/03/06 00:10:54;;;;;;;;;41.33;34.33;;;;;8.70;55.73;100656.09;5059174;28;45561;-78
2023/03/06 00:13:20;;;;;;;;;44.00;34.33;;;;;8.70;55.31;100658.75;5058860;28;45431;-77
2023/03/06 00:15:47;;;;;;;;;39.33;32.33;;;;;8.70;55.58;100656.09;5056939;28;45419;-76
2023/03/06 00:18:13;;;;;;;;;40.67;35.00;;;;;8.76;55.23;100666.16;5059157;28;45479;-74
2023/03/06 00:20:40;;;;;;;;;41.67;33.00;;;;;8.72;54.97;100650.66;5057755;28;45386;-74
2023/03/06 00:23:06;;;;;;;;;39.00;34.33;;;;;8.57;54.68;100626.31;5058754;28;45336;-75
2023/03/06 00:25:35;;;;;;;;;40.00;33.00;;;;;8.43;54.41;100594.91;5058584;28;45552;-76
2023/03/06 00:28:00;;;;;;;;;38.67;33.67;;;;;7.12;54.00;100391.88;5057544;28;45363;-75
2023/03/06 00:30:26;;;;;;;;;35.67;32.00;;;;;8.64;54.20;100648.69;5057714;28;45562;-76
2023/03/06 00:32:52;;;;;;;;;35.33;34.00;;;;;8.61;53.90;100648.97;5057914;28;46108;-76
2023/03/06 00:35:17;;;;;;;;;39.33;33.00;;;;;8.62;54.50;100640.03;5057776;28;45383;-74
2023/03/06 00:37:43;;;;;;;;;43.67;35.33;;;;;8.62;54.47;100637.38;5058014;28;45242;-76
2023/03/06 00:40:12;;;;;;;;;39.33;33.00;;;;;8.60;54.30;100647.25;5057730;28;45480;-76
2023/03/06 00:42:38;;;;;;;;;37.00;33.00;;;;;8.07;54.47;100538.84;5057783;28;45291;-74
2023/03/06 00:45:03;;;;;;;;;41.33;36.33;;;;;8.20;54.74;100565.91;5058112;28;45394;-76
2023/03/06 00:47:29;;;;;;;;;32.67;29.00;;;;;8.53;54.40;100614.31;5063371;28;45214;-74
2023/03/06 00:49:54;;;;;;;;;37.00;32.00;;;;;8.61;54.63;100621.59;5050372;28;45499;-76
2023/03/06 00:52:19;;;;;;;;;43.67;35.67;;;;;8.68;54.35;100628.06;5038862;28;45495;-75
2023/03/06 00:54:45;;;;;;;;;40.33;32.00;;;;;8.38;54.26;100579.41;5038568;28;45955;-74
2023/03/06 00:57:10;;;;;;;;;34.67;31.67;;;;;8.70;54.21;100616.34;5037782;28;45175;-77
2023/03/06 00:59:36;;;;;;;;;37.33;32.00;;;;;8.64;53.90;100621.34;5038641;28;45585;-75
2023/03/06 01:02:02;;;;;;;;;36.00;32.00;;;;;7.39;53.32;100428.34;5050817;28;47298;-75
2023/03/06 01:04:27;;;;;;;;;38.00;28.33;;;;;8.19;54.04;100563.41;5058463;28;45523;-76
2023/03/06 01:06:52;;;;;;;;;41.00;36.00;;;;;8.51;53.88;100624.22;5047323;28;45297;-74
2023/03/06 01:09:18;;;;;;;;;41.33;33.00;;;;;7.94;53.93;100546.16;5038195;28;45491;-75
2023/03/06 01:11:43;;;;;;;;;40.67;34.00;;;;;8.15;53.97;100575.22;5037898;28;46414;-74
2023/03/06 01:14:09;;;;;;;;;39.67;35.00;;;;;7.99;53.58;100546.59;5037855;28;45498;-74
2023/03/06 01:16:34;;;;;;;;;39.00;30.33;;;;;8.19;53.84;100569.53;5038226;28;45345;-75
2023/03/06 01:18:59;;;;;;;;;41.00;35.67;;;;;8.48;54.36;100616.53;5038008;28;45364;-74
2023/03/06 01:21:25;;;;;;;;;32.33;31.33;;;;;8.43;54.22;100624.06;5037888;28;47365;-74
2023/03/06 01:23:50;;;;;;;;;40.00;35.67;;;;;8.36;54.28;100633.50;5038359;28;45456;-76
2023/03/06 01:26:15;;;;;;;;;41.67;34.67;;;;;8.29;54.57;100611.97;5038754;28;45264;-74
2023/03/06 01:28:41;;;;;;;;;35.67;32.67;;;;;8.08;54.65;100572.28;5037047;28;45657;-74
2023/03/06 01:31:08;;;;;;;;;35.33;33.00;;;;;8.22;54.99;100594.94;5037554;28;45878;-75
2023/03/06 01:33:34;;;;;;;;;44.67;35.00;;;;;8.32;55.29;100617.00;5037712;28;45532;-75
2023/03/06 01:36:06;;;;;;;;;42.33;34.67;;;;;8.04;55.70;100584.13;5036138;28;45470;-74
2023/03/06 01:38:33;;;;;;;;;40.33;35.33;;;;;8.20;55.91;100608.28;5051664;28;45418;-72
2023/03/06 01:40:58;;;;;;;;;41.00;35.67;;;;;8.21;56.06;100614.44;5045880;28;46387;-76
2023/03/06 01:43:27;;;;;;;;;43.33;36.00;;;;;8.22;56.10;100601.06;5044708;28;45557;-76
2023/03/06 01:46:19;;;;;;;;;41.67;34.33;;;;;8.18;55.83;100610.22;5056657;28;45469;-74
2023/03/06 01:48:47;;;;;;;;;39.00;32.33;;;;;8.14;54.96;100605.34;5055561;28;45415;-75
2023/03/06 01:51:13;;;;;;;;;35.67;32.67;;;;;7.25;54.99;100458.63;5054187;28;45595;-75
2023/03/06 01:53:40;;;;;;;;;27.00;26.00;;;;;7.83;52.73;100551.53;5052679;28;45363;-75
2023/03/06 01:56:06;;;;;;;;;34.67;29.33;;;;;7.63;53.13;100527.63;5054825;28;45391;-74
2023/03/06 01:58:31;;;;;;;;;34.00;27.33;;;;;7.81;52.84;100545.56;5056021;28;45271;-75
2023/03/06 02:00:57;;;;;;;;;30.33;25.33;;;;;7.85;52.09;100570.78;5057289;28;45796;-76
2023/03/06 02:03:25;;;;;;;;;30.67;26.67;;;;;7.52;52.25;100517.09;5057247;28;45433;-73
2023/03/06 02:05:51;;;;;;;;;31.33;27.33;;;;;7.90;52.43;100571.22;5057740;28;45419;-76
2023/03/06 02:08:19;;;;;;;;;34.67;29.00;;;;;8.00;52.32;100601.22;5057289;28;45367;-73
2023/03/06 02:11:01;;;;;;;;;30.33;26.00;;;;;7.96;52.86;100589.22;5055938;28;47331;-76
2023/03/06 02:13:28;;;;;;;;;42.33;31.00;;;;;7.66;52.56;100539.75;5072771;28;45501;-75
2023/03/06 02:15:53;;;;;;;;;36.67;30.67;;;;;7.26;52.47;100474.34;5036611;28;45502;-75
2023/03/06 02:18:19;;;;;;;;;30.00;27.33;;;;;7.94;52.52;100575.28;5037125;28;45522;-74
2023/03/06 02:20:49;;;;;;;;;38.33;31.67;;;;;7.99;52.39;100578.34;5035399;28;48643;-75
2023/03/06 02:23:36;;;;;;;;;35.00;31.67;;;;;7.99;52.46;100583.66;5037218;28;45248;-75
2023/03/06 02:26:02;;;;;;;;;35.00;32.67;;;;;7.92;52.36;100577.22;5037258;28;45460;-73
2023/03/06 02:28:28;;;;;;;;;35.00;31.33;;;;;7.35;53.48;100501.81;5043179;28;45404;-72
2023/03/06 02:30:54;;;;;;;;;32.33;30.00;;;;;7.75;52.89;100543.41;5038177;28;45369;-75
2023/03/06 02:33:25;;;;;;;;;36.00;30.33;;;;;7.59;53.17;100504.19;5036906;28;45285;-73
2023/03/06 02:35:58;;;;;;;;;41.67;33.67;;;;;7.98;53.75;100565.25;5037003;28;45347;-75
2023/03/06 02:38:28;;;;;;;;;38.33;32.67;;;;;7.87;53.45;100537.06;5036845;28;45623;-75
2023/03/06 02:40:56;;;;;;;;;34.67;29.00;;;;;7.98;53.69;100550.22;5036278;28;46269;-73
2023/03/06 02:43:26;;;;;;;;;38.67;31.33;;;;;7.93;53.59;100565.66;5035007;28;45610;-74
2023/03/06 02:45:52;;;;;;;;;45.67;35.67;;;;;6.39;53.65;100307.25;5036752;28;45578;-74
2023/03/06 02:48:18;;;;;;;;;41.67;34.67;;;;;7.81;53.46;100550.84;5036207;28;45447;-73
2023/03/06 02:50:45;;;;;;;;;36.67;31.00;;;;;7.84;54.10;100545.28;5041226;28;45696;-74
2023/03/06 02:53:13;;;;;;;;;33.67;33.00;;;;;7.86;53.83;100540.69;5057487;28;45380;-75
2023/03/06 02:55:38;;;;;;;;;33.67;30.33;;;;;7.52;53.42;100495.94;5055208;28;45340;-73
2023/03/06 02:58:05;;;;;;;;;38.00;33.33;;;;;7.33;53.23;100464.91;5056927;28;45193;-73
2023/03/06 03:00:31;;;;;;;;;39.00;32.67;;;;;7.21;53.69;100434.25;5056557;28;45575;-74
2023/03/06 03:02:57;;;;;;;;;37.33;32.67;;;;;7.67;52.85;100501.72;5055037;28;46015;-73
2023/03/06 03:05:22;;;;;;;;;37.33;31.00;;;;;7.81;53.19;100521.72;5049753;28;45491;-74
2023/03/06 03:07:48;;;;;;;;;33.67;28.00;;;;;7.70;53.07;100504.13;5036725;28;45534;-75
2023/03/06 03:10:13;;;;;;;;;35.33;26.33;;;;;5.78;52.92;100190.09;5034822;28;46071;-75
2023/03/06 03:12:39;;;;;;;;;40.00;33.67;;;;;7.66;52.88;100483.34;5052691;28;45550;-75
2023/03/06 03:15:05;;;;;;;;;34.33;32.33;;;;;7.92;53.22;100524.28;5050403;28;45502;-73
2023/03/06 03:17:33;;;;;;;;;34.33;31.00;;;;;6.90;53.22;100361.97;5048588;28;45296;-74
2023/03/06 03:19:59;;;;;;;;;41.33;33.67;;;;;7.38;53.47;100439.88;5051356;28;46176;-73
2023/03/06 03:22:24;;;;;;;;;38.33;32.67;;;;;7.72;53.28;100496.88;5058462;28;45401;-76
2023/03/06 03:24:49;;;;;;;;;38.33;32.00;;;;;7.69;52.75;100491.00;5058239;28;45264;-73
2023/03/06 03:27:15;;;;;;;;;41.33;32.33;;;;;7.06;52.89;100379.19;5059917;28;45549;-77
2023/03/06 03:29:41;;;;;;;;;30.67;27.67;;;;;7.86;53.38;100503.63;5059387;28;46314;-76
2023/03/06 03:32:07;;;;;;;;;30.00;26.33;;;;;7.93;53.33;100516.19;5060266;28;45433;-75
2023/03/06 03:34:32;;;;;;;;;38.33;33.00;;;;;7.73;53.35;100495.91;5060334;28;45499;-74
2023/03/06 03:36:58;;;;;;;;;29.00;28.33;;;;;6.96;53.48;100376.47;5059755;28;45271;-75
2023/03/06 03:39:23;;;;;;;;;35.00;32.00;;;;;7.55;53.78;100478.97;5058794;28;45502;-76
2023/03/06 03:41:49;;;;;;;;;43.00;33.67;;;;;7.76;53.28;100503.56;5059447;28;45292;-76
2023/03/06 03:44:14;;;;;;;;;30.33;28.00;;;;;7.85;53.04;100509.91;5054134;28;45446;-75
2023/03/06 03:46:40;;;;;;;;;38.00;30.00;;;;;7.37;53.64;100441.69;5054613;28;45508;-74
2023/03/06 03:49:05;;;;;;;;;45.00;32.67;;;;;5.02;54.35;100078.63;5058589;28;46498;-74
2023/03/06 03:51:31;;;;;;;;;37.67;35.33;;;;;7.68;54.66;100513.16;5044622;28;45261;-73
2023/03/06 03:53:56;;;;;;;;;38.67;32.67;;;;;7.65;54.40;100506.31;5043301;28;45836;-74
2023/03/06 03:56:23;;;;;;;;;33.33;28.67;;;;;7.20;54.74;100419.31;5058101;28;45242;-75
2023/03/06 03:58:49;;;;;;;;;30.33;24.67;;;;;7.53;54.63;100479.09;5058572;28;45600;-75
2023/03/06 04:01:14;;;;;;;;;44.00;35.00;;;;;6.65;54.64;100323.59;5049964;28;45974;-74
2023/03/06 04:03:40;;;;;;;;;46.00;33.33;;;;;7.42;54.82;100447.44;5048800;28;45236;-72
2023/03/06 04:06:06;;;;;;;;;41.00;35.00;;;;;7.73;55.32;100509.13;5061145;28;45229;-75
2023/03/06 04:08:33;;;;;;;;;42.33;35.33;;;;;7.73;55.19;100497.72;5061305;28;45898;-75
2023/03/06 04:10:58;;;;;;;;;37.00;31.00;;;;;7.47;54.95;100455.81;5054436;28;45502;-75
2023/03/06 04:13:24;;;;;;;;;43.00;34.67;;;;;7.41;54.69;100436.97;5058425;28;45652;-74
2023/03/06 04:15:51;;;;;;;;;38.00;31.67;;;;;7.74;54.76;100478.22;5058488;28;45333;-75
2023/03/06 04:18:17;;;;;;;;;40.00;34.00;;;;;7.80;55.13;100493.56;5056916;28;45863;-74
2023/03/06 04:20:44;;;;;;;;;41.67;34.67;;;;;7.27;55.27;100414.38;5056701;28;45712;-75
2023/03/06 04:23:09;;;;;;;;;48.33;35.67;;;;;7.57;55.57;100461.97;5055744;28;45446;-73
2023/03/06 04:25:35;;;;;;;;;42.67;37.67;;;;;7.65;55.55;100494.91;5043794;28;46733;-75
2023/03/06 04:28:00;;;;;;;;;42.67;33.67;;;;;7.60;55.42;100493.47;5057160;28;46940;-75
2023/03/06 04:30:25;;;;;;;;;40.67;34.00;;;;;7.40;55.37;100459.09;5057078;28;45507;-73
2023/03/06 04:32:51;;;;;;;;;44.67;35.00;;;;;6.87;55.69;100371.97;5055621;28;45557;-75
2023/03/06 04:35:16;;;;;;;;;39.67;33.00;;;;;7.57;55.70;100483.16;5056517;28;45469;-74
2023/03/06 04:37:41;;;;;;;;;39.67;34.33;;;;;7.14;54.83;100409.28;5057331;28;45708;-75
2023/03/06 04:40:15;;;;;;;;;34.33;31.33;;;;;7.54;55.08;100475.47;5056679;28;45459;-75
2023/03/06 04:42:41;;;;;;;;;40.33;34.33;;;;;7.52;55.65;100458.91;5047271;28;45386;-74
2023/03/06 04:45:07;;;;;;;;;37.33;33.00;;;;;7.66;55.04;100475.41;5052147;28;45502;-75
2023/03/06 04:47:32;;;;;;;;;37.00;33.00;;;;;7.52;54.84;100453.59;5058361;28;45549;-74
2023/03/06 04:49:58;;;;;;;;;44.67;33.33;;;;;7.36;55.42;100426.78;5056168;28;46194;-75
2023/03/06 04:52:23;;;;;;;;;37.67;34.00;;;;;7.39;55.72;100420.41;5058497;28;45585;-76
2023/03/06 04:54:48;;;;;;;;;36.67;33.67;;;;;7.62;55.39;100470.38;5057091;28;45551;-74
2023/03/06 04:57:14;;;;;;;;;35.67;34.00;;;;;6.86;55.18;100344.72;5073231;28;45932;-74
2023/03/06 04:59:40;;;;;;;;;34.00;31.00;;;;;6.82;55.17;100332.72;5058219;28;45482;-75
2023/03/06 05:02:05;;;;;;;;;35.67;33.00;;;;;7.19;55.20;100385.91;5058252;28;45446;-76
2023/03/06 05:04:30;;;;;;;;;38.00;34.00;;;;;7.76;55.11;100473.63;5050558;28;45408;-75
2023/03/06 05:06:56;;;;;;;;;32.00;27.67;;;;;7.61;55.26;100444.06;5043104;28;46068;-76
2023/03/06 05:09:21;;;;;;;;;37.00;29.67;;;;;7.55;55.21;100440.13;5058146;28;45393;-77
2023/03/06 05:11:46;;;;;;;;;40.67;35.00;;;;;7.10;55.12;100357.63;5058023;28;46443;-74
2023/03/06 05:14:12;;;;;;;;;37.33;32.00;;;;;7.68;54.96;100454.94;5058302;28;45368;-77
2023/03/06 05:16:37;;;;;;;;;38.00;33.67;;;;;7.46;54.92;100435.63;5057722;28;46563;-75
2023/03/06 05:19:02;;;;;;;;;42.33;35.00;;;;;7.71;54.98;100467.91;5058039;28;45271;-76
2023/03/06 05:21:28;;;;;;;;;38.33;32.67;;;;;7.60;55.13;100453.78;5050140;28;45342;-74
2023/03/06 05:23:53;;;;;;;;;42.67;32.00;;;;;7.59;55.16;100465.31;5037916;28;45510;-75
2023/03/06 05:26:19;;;;;;;;;39.00;32.00;;;;;7.72;55.49;100480.16;5035866;28;46279;-75
2023/03/06 05:28:44;;;;;;;;;43.33;33.67;;;;;7.53;55.59;100460.56;5037564;28;45338;-75
2023/03/06 05:31:09;;;;;;;;;41.67;33.67;;;;;5.58;55.09;100128.44;5037704;28;45523;-77
2023/03/06 05:33:35;;;;;;;;;38.00;32.67;;;;;7.44;55.43;100442.84;5037464;28;45162;-75
2023/03/06 05:36:01;;;;;;;;;35.67;31.33;;;;;7.72;55.38;100480.16;5037556;28;46082;-74
2023/03/06 05:38:26;;;;;;;;;38.67;32.67;;;;;7.72;55.58;100472.22;5038195;28;45450;-74
2023/03/06 05:40:52;;;;;;;;;38.33;29.33;;;;;7.44;55.68;100426.16;5037385;28;45374;-75
2023/03/06 05:43:17;;;;;;;;;46.33;36.00;;;;;7.70;55.46;100466.22;5041065;28;45369;-74
2023/03/06 05:45:43;;;;;;;;;47.33;37.33;;;;;7.70;55.76;100468.88;5057844;28;45654;-73
2023/03/06 05:48:11;;;;;;;;;41.33;29.33;;;;;7.43;56.19;100417.38;5059213;28;45355;-73
2023/03/06 05:50:36;;;;;;;;;45.33;37.67;;;;;7.70;55.58;100466.22;5056935;28;45397;-76
2023/03/06 05:53:02;;;;;;;;;40.67;33.00;;;;;7.68;56.02;100453.13;5057688;28;45502;-76
2023/03/06 05:55:27;;;;;;;;;42.33;35.00;;;;;7.66;55.52;100454.25;5052424;28;47337;-76
2023/03/06 05:57:53;;;;;;;;;34.67;29.33;;;;;7.57;55.01;100467.28;5036018;28;45566;-75
2023/03/06 06:00:19;;;;;;;;;30.33;28.00;;;;;7.46;54.92;100463.88;5036017;28;45300;-75
2023/03/06 06:02:45;;;;;;;;;31.67;29.00;;;;;7.55;54.45;100452.50;5070050;28;45716;-75
2023/03/06 06:05:11;;;;;;;;;35.00;31.33;;;;;6.79;54.47;100321.56;5036497;28;46453;-75
2023/03/06 06:07:36;;;;;;;;;31.33;26.33;;;;;7.34;54.42;100412.88;5037137;28;45423;-75
2023/03/06 06:10:03;;;;;;;;;36.00;32.00;;;;;7.59;54.43;100433.59;5035865;28;45524;-75
2023/03/06 06:12:28;;;;;;;;;29.00;29.00;;;;;7.61;54.04;100423.72;5036890;28;45339;-74
2023/03/06 06:14:54;;;;;;;;;32.00;29.67;;;;;7.04;54.12;100309.75;5035436;28;48624;-76
2023/03/06 06:17:19;;;;;;;;;34.67;31.67;;;;;6.83;54.35;100307.97;5036604;28;45442;-74
2023/03/06 06:19:44;;;;;;;;;33.33;26.00;;;;;7.37;54.12;100396.72;5036862;28;45485;-74
2023/03/06 06:22:10;;;;;;;;;35.67;30.00;;;;;6.73;54.38;100280.66;5037164;28;45249;-73
2023/03/06 06:24:35;;;;;;;;;32.00;28.67;;;;;7.42;54.45;100393.72;5036707;28;45729;-76
2023/03/06 06:27:01;;;;;;;;;31.00;29.00;;;;;7.27;54.78;100385.28;5036364;28;45411;-74
2023/03/06 06:29:27;;;;;;;;;38.33;27.33;;;;;7.07;55.39;100375.56;5059451;28;45593;-73
2023/03/06 06:31:53;;;;;;;;;41.33;33.33;;;;;7.31;55.04;100407.84;5057221;28;45233;-76
2023/03/06 06:34:19;;;;;;;;;32.33;29.00;;;;;7.04;54.95;100362.63;5054938;28;46958;-75
2023/03/06 06:36:45;;;;;;;;;34.33;28.67;;;;;7.18;55.54;100386.88;5056354;28;45478;-75
2023/03/06 06:39:14;;;;;;;;;31.67;28.67;;;;;7.50;55.26;100434.38;5056693;28;45267;-74
2023/03/06 06:41:40;;;;;;;;;32.67;28.00;;;;;5.16;55.16;100048.47;5057182;28;45391;-77
2023/03/06 06:44:09;;;;;;;;;38.33;33.33;;;;;7.29;55.00;100396.56;5056268;28;46539;-75
2023/03/06 06:46:35;;;;;;;;;34.33;32.00;;;;;6.73;55.14;100301.78;5051239;28;45356;-75
2023/03/06 06:49:01;;;;;;;;;33.00;30.33;;;;;7.52;55.13;100427.16;5053641;28;45343;-75
2023/03/06 06:51:31;;;;;;;;;36.33;29.00;;;;;7.53;54.84;100431.47;5055380;28;45525;-76
2023/03/06 06:53:57;;;;;;;;;29.00;27.67;;;;;7.38;54.68;100416.91;5054518;28;46733;-73
2023/03/06 06:56:22;;;;;;;;;36.67;32.00;;;;;7.38;54.93;100424.00;5058289;28;45835;-77
2023/03/06 06:58:51;;;;;;;;;30.00;23.00;;;;;7.16;54.72;100388.00;5058996;28;45271;-76
2023/03/06 07:01:16;;;;;;;;;31.00;26.67;;;;;7.53;54.64;100444.69;5060186;28;45485;-77
2023/03/06 07:03:42;;;;;;;;;34.67;30.67;;;;;7.58;54.33;100473.41;5054514;28;48530;-76
2023/03/06 07:06:07;;;;;;;;;35.33;30.67;;;;;7.31;54.67;100419.25;5039658;28;46113;-74
2023/03/06 07:08:32;;;;;;;;;35.33;30.33;;;;;7.44;55.01;100440.22;5072764;28;45682;-76
2023/03/06 07:10:58;;;;;;;;;40.33;35.33;;;;;7.48;54.60;100451.38;5072434;28;45569;-77
2023/03/06 07:13:24;;;;;;;;;30.67;27.67;;;;;6.47;54.99;100279.41;5050425;28;45520;-75
2023/03/06 07:15:49;;;;;;;;;35.67;30.33;;;;;7.33;55.23;100435.81;5046312;28;45478;-74
2023/03/06 07:18:15;;;;;;;;;41.33;33.67;;;;;7.22;55.58;100419.22;5052128;28;45445;-76
2023/03/06 07:20:40;;;;;;;;;34.33;30.33;;;;;7.46;55.59;100462.06;5057332;28;45594;-79
2023/03/06 07:23:12;;;;;;;;;35.00;32.67;;;;;7.44;55.76;100469.31;5059414;28;47311;-76
2023/03/06 07:25:38;;;;;;;;;30.00;28.00;;;;;6.27;55.47;100270.50;5066017;28;45354;-77
2023/03/06 07:28:03;;;;;;;;;29.67;22.00;;;;;6.78;55.28;100351.59;5064042;28;45367;-76
2023/03/06 07:30:29;;;;;;;;;35.00;30.33;;;;;7.16;55.47;100419.72;5061430;28;45458;-77
2023/03/06 07:32:56;;;;;;;;;31.33;25.00;;;;;7.18;55.54;100409.84;5067153;28;47390;-75
2023/03/06 07:35:23;;;;;;;;;32.00;27.67;;;;;7.23;55.60;100408.50;5059116;28;45438;-77
2023/03/06 07:37:48;;;;;;;;;32.67;30.00;;;;;7.61;55.25;100463.41;5069029;28;45515;-77
2023/03/06 07:40:14;;;;;;;;;22.00;22.00;;;;;7.19;55.06;100408.88;5082824;27;45568;-76
2023/03/06 07:42:39;;;;;;;;;33.33;28.33;;;;;7.29;55.06;100415.06;5059389;28;46236;-77
2023/03/06 07:45:06;;;;;;;;;34.33;31.67;;;;;7.58;55.56;100468.94;5078544;28;45489;-77
2023/03/06 07:47:32;;;;;;;;;34.67;27.00;;;;;7.23;55.13;100407.66;5068208;28;45426;-78
2023/03/06 07:50:01;;;;;;;;;35.33;29.33;;;;;7.48;55.13;100444.28;5060030;28;45324;-80
2023/03/06 07:52:27;;;;;;;;;21.00;14.67;;;;;6.22;54.64;100244.50;5058136;28;48315;-76
2023/03/06 07:54:53;;;;;;;;;30.67;30.33;;;;;7.30;55.55;100419.38;5056785;28;45864;-77
2023/03/06 07:57:18;;;;;;;;;28.33;22.33;;;;;7.52;54.91;100448.31;5057219;28;45209;-76
2023/03/06 07:59:44;;;;;;;;;31.67;24.33;;;;;7.42;55.30;100418.34;5039835;28;45620;-76
2023/03/06 08:02:10;;;;;;;;;23.00;21.00;;;;;6.63;55.07;100291.19;5076305;27;47974;-76
2023/03/06 08:04:35;;;;;;;;;27.67;25.33;;;;;7.22;54.57;100383.03;5059333;28;45356;-76
2023/03/06 08:07:02;;;;;;;;;29.67;24.00;;;;;7.66;54.94;100446.31;5055463;28;45630;-75
2023/03/06 08:09:28;;;;;;;;;30.33;28.00;;;;;7.65;54.76;100436.69;5057420;28;45637;-77
2023/03/06 08:11:54;;;;;;;;;31.00;27.33;;;;;7.52;54.81;100421.03;5057073;28;47591;-72
2023/03/06 08:14:20;;;;;;;;;35.67;28.67;;;;;7.84;54.83;100465.88;5059468;28;45699;-75
2023/03/06 08:16:45;;;;;;;;;31.33;27.00;;;;;7.77;55.16;100451.50;5055000;28;45323;-73
2023/03/06 08:19:11;;;;;;;;;33.33;26.67;;;;;7.86;55.20;100464.78;5053248;28;45407;-73
2023/03/06 08:21:36;;;;;;;;;34.67;27.33;;;;;7.59;55.24;100415.06;5051083;28;46184;-72
2023/03/06 08:24:01;;;;;;;;;33.00;29.33;;;;;7.96;55.49;100470.09;5058415;28;45360;-73
2023/03/06 08:26:30;;;;;;;;;33.67;29.00;;;;;7.59;55.35;100411.59;5052276;28;45547;-74
2023/03/06 08:28:59;;;;;;;;;31.33;29.67;;;;;7.89;55.64;100456.56;5056630;28;45561;-72
2023/03/06 08:31:36;;;;;;;;;32.67;29.00;;;;;7.86;55.39;100442.75;5057547;28;45551;-72
2023/03/06 08:34:04;;;;;;;;;33.67;29.67;;;;;7.61;55.61;100399.94;5043013;28;45469;-71
2023/03/06 08:36:29;;;;;;;;;34.33;31.00;;;;;8.11;55.52;100491.75;5056312;28;45297;-77
2023/03/06 08:38:55;;;;;;;;;37.33;33.00;;;;;8.18;55.29;100477.81;5058816;28;45497;-75
2023/03/06 08:41:21;;;;;;;;;35.33;29.67;;;;;7.89;55.65;100429.25;5055152;28;47849;-73
2023/03/06 08:43:48;;;;;;;;;41.67;32.67;;;;;8.10;55.46;100461.78;5088461;27;45394;-72
2023/03/06 08:46:13;;;;;;;;;40.67;29.33;;;;;8.36;55.22;100491.28;5036795;28;45420;-72
2023/03/06 08:48:39;;;;;;;;;31.00;27.00;;;;;8.43;55.01;100481.84;5047575;28;45423;-72
2023/03/06 08:51:06;;;;;;;;;30.33;26.67;;;;;8.51;54.61;100494.41;5045194;28;47335;-74
2023/03/06 08:53:32;;;;;;;;;23.33;23.33;;;;;8.57;54.42;100490.34;5053593;28;45549;-74
2023/03/06 08:55:57;;;;;;;;;33.67;28.33;;;;;8.44;54.47;100459.69;5056764;28;45280;-73
2023/03/06 08:58:23;;;;;;;;;36.67;31.33;;;;;8.52;54.76;100461.63;5057436;28;45292;-72
2023/03/06 09:00:50;;;;;;;;;32.33;28.67;;;;;8.66;54.40;100477.13;5057347;28;45679;-72
2023/03/06 09:03:16;;;;;;;;;27.33;26.00;;;;;8.83;54.14;100495.00;5055627;28;45313;-74
2023/03/06 09:05:41;;;;;;;;;30.33;29.00;;;;;8.87;54.22;100484.13;5057378;28;45276;-72
2023/03/06 09:08:07;;;;;;;;;35.00;32.00;;;;;8.97;54.03;100491.06;5059346;28;45243;-73
2023/03/06 09:10:32;;;;;;;;;31.00;28.67;;;;;9.01;53.74;100481.03;5055445;28;46136;-72
2023/03/06 09:12:58;;;;;;;;;31.67;29.67;;;;;8.91;53.52;100437.78;5048149;28;45505;-73
2023/03/06 09:15:24;;;;;;;;;37.00;32.00;;;;;9.09;52.81;100459.97;5060941;28;45658;-72
2023/03/06 09:17:50;;;;;;;;;30.00;27.00;;;;;9.37;53.26;100480.28;5051509;28;45446;-72
2023/03/06 09:20:16;;;;;;;;;29.33;28.33;;;;;9.48;52.69;100473.16;5055898;28;45439;-77
2023/03/06 09:22:42;;;;;;;;;32.67;30.00;;;;;9.52;52.20;100477.19;5056660;28;45490;-74
2023/03/06 09:25:12;;;;;;;;;37.33;31.67;;;;;9.65;52.21;100480.38;5055988;28;45295;-75
2023/03/06 09:27:37;;;;;;;;;36.00;30.00;;;;;9.56;51.98;100438.75;5057095;28;45415;-73
2023/03/06 09:30:03;;;;;;;;;35.67;30.67;;;;;9.94;51.78;100480.25;5056589;28;46952;-72
2023/03/06 09:32:29;;;;;;;;;32.00;27.33;;;;;9.97;51.43;100464.88;5050783;28;45527;-74
2023/03/06 09:34:54;;;;;;;;;31.00;27.67;;;;;10.03;50.89;100456.34;5045898;28;45826;-71
2023/03/06 09:37:20;;;;;;;;;35.67;32.67;;;;;10.26;51.43;100494.00;5056756;28;45596;-72
2023/03/06 09:39:45;;;;;;;;;29.33;27.00;;;;;10.45;50.87;100495.69;5056978;28;46307;-79
2023/03/06 09:42:20;;;;;;;;;29.00;24.67;;;;;9.83;50.69;100383.06;5054370;28;45508;-72
2023/03/06 09:44:52;;;;;;;;;34.67;32.00;;;;;10.59;50.25;100519.09;5045366;28;45334;-76
2023/03/06 09:47:44;;;;;;;;;28.00;26.00;;;;;8.74;50.04;100193.66;5053884;28;45471;-72
2023/03/06 09:50:18;;;;;;;;;32.67;24.67;;;;;10.78;49.79;100512.81;5053984;28;46060;-75
2023/03/06 09:53:02;;;;;;;;;30.00;25.67;;;;;10.88;49.27;100512.75;5066201;28;45382;-72
2023/03/06 09:55:34;;;;;;;;;30.33;29.33;;;;;10.71;49.31;100458.56;5055843;28;45354;-72
2023/03/06 09:58:12;;;;;;;;;30.67;28.33;;;;;11.04;49.39;100494.28;5056371;28;45475;-72
2023/03/06 10:00:44;;;;;;;;;28.33;25.33;;;;;11.13;48.18;100497.84;5051157;28;45498;-71
2023/03/06 10:03:42;;;;;;;;;27.33;25.67;;;;;11.18;48.33;100480.41;5046584;28;45553;-72
2023/03/06 10:06:19;;;;;;;;;31.67;30.67;;;;;10.96;47.96;100422.38;5062548;27;45242;-72
2023/03/06 10:08:51;;;;;;;;;31.00;28.67;;;;;11.56;47.86;100491.69;5053774;28;45472;-72
2023/03/06 10:11:40;;;;;;;;;18.00;13.00;;;;;11.61;46.64;100500.03;5056361;28;45659;-72
2023/03/06 10:14:27;;;;;;;;;35.33;30.67;;;;;11.75;46.43;100496.78;5071866;27;45351;-73
2023/03/06 10:16:53;;;;;;;;;34.00;31.00;;;;;11.90;46.10;100493.59;5044572;28;45456;-71
2023/03/06 10:19:20;;;;;;;;;37.00;32.00;;;;;11.86;45.47;100459.28;5056625;28;45541;-71
2023/03/06 10:21:53;;;;;;;;;27.67;25.67;;;;;12.19;43.17;100483.38;5056692;28;46043;-72
2023/03/06 10:24:32;;;;;;;;;27.33;20.33;;;;;12.15;42.61;100458.06;5055322;28;45454;-74
2023/03/06 10:27:30;;;;;;;;;27.00;24.67;;;;;12.53;43.08;100479.84;5050100;28;45301;-72
2023/03/06 10:30:13;;;;;;;;;31.33;26.33;;;;;12.57;42.41;100470.50;5047787;28;45490;-72
2023/03/06 10:33:03;;;;;;;;;31.00;29.67;;;;;12.58;42.35;100457.00;5069062;27;46873;-73
2023/03/06 10:35:41;;;;;;;;;21.00;20.00;;;;;12.49;42.56;100437.50;5046727;28;45632;-72
2023/03/06 10:38:29;;;;;;;;;24.00;24.00;;;;;12.47;41.72;100428.00;5056746;28;45591;-73
2023/03/06 10:41:15;;;;;;;;;22.33;21.33;;;;;12.90;41.11;100469.56;5056284;28;46453;-72
2023/03/06 10:43:43;;;;;;;;;23.00;22.00;;;;;12.90;38.98;100477.56;5055264;28;45641;-71
2023/03/06 10:46:11;;;;;;;;;14.00;13.00;;;;;12.84;37.59;100486.25;5056167;28;45528;-72
2023/03/06 10:48:39;;;;;;;;;16.67;15.33;;;;;12.89;37.83;100470.56;5037216;28;45599;-72
2023/03/06 10:51:17;;;;;;;;;16.67;16.67;;;;;12.82;37.72;100464.22;5042487;28;45562;-72
2023/03/06 10:53:52;;;;;;;;;17.00;16.00;;;;;12.84;37.84;100464.91;5055270;28;46451;-72
2023/03/06 10:56:31;;;;;;;;;18.00;18.00;;;;;12.89;37.44;100475.91;5052393;28;45553;-72
2023/03/06 10:59:11;;;;;;;;;19.33;17.33;;;;;12.43;36.90;100430.16;5037213;28;45381;-70
2023/03/06 11:01:37;;;;;;;;;20.33;18.67;;;;;11.85;36.58;100351.06;5037854;28;45234;-71
2023/03/06 11:04:22;;;;;;;;;20.00;15.67;;;;;12.57;37.41;100470.50;5038967;28;45480;-72
2023/03/06 11:07:03;;;;;;;;;20.00;19.67;;;;;12.59;37.74;100463.16;5052142;28;46467;-74
2023/03/06 11:09:28;;;;;;;;;23.00;22.00;;;;;12.49;38.51;100447.34;5055487;27;46201;-71
2023/03/06 11:12:13;;;;;;;;;22.33;20.67;;;;;12.68;38.43;100462.19;5054962;28;45407;-73
2023/03/06 11:14:39;;;;;;;;;27.67;24.00;;;;;12.71;38.53;100451.19;5050979;28;47145;-70
2023/03/06 11:17:29;;;;;;;;;21.33;21.33;;;;;12.37;38.63;100398.81;5068363;27;45327;-75
2023/03/06 11:20:13;;;;;;;;;21.67;21.00;;;;;12.66;38.36;100459.69;5048277;28;45456;-72